sensor_id;sensor_type;location;lat;lon;timestamp;pressure;altitude;pressure_sealevel;temperature;humidity
7524;BME280;3803;51.666;7.630;2023-03-13T00:00:14;99865.09;;;12.68;50.54
7524;BME280;3803;51.666;7.630;2023-03-13T00:00:35;99872.94;;;12.68;50.60
7524;BME280;3803;51.666;7.630;2023-03-13T00:00:57;99864.22;;;12.69;50.85
7524;BME280;3803;51.666;7.630;2023-03-13T00:01:44;99855.44;;;12.56;50.55
7524;BME280;3803;51.666;7.630;2023-03-13T00:02:05;99869.47;;;12.66;50.99
7524;BME280;3803;51.666;7.630;2023-03-13T00:02:26;99857.22;;;12.61;50.76
7524;BME280;3803;51.666;7.630;2023-03-13T00:02:46;99853.72;;;12.59;50.65
7524;BME280;3803;51.666;7.630;2023-03-13T00:03:07;99852.88;;;12.67;50.93
7524;BME280;3803;51.666;7.630;2023-03-13T00:03:27;99862.50;;;12.72;50.52
7524;BME280;3803;51.666;7.630;2023-03-13T00:03:48;99850.25;;;12.64;50.66
7524;BME280;3803;51.666;7.630;2023-03-13T00:04:09;99852.00;;;12.66;50.54
7524;BME280;3803;51.666;7.630;2023-03-13T00:04:30;99859.84;;;12.65;50.76
7524;BME280;3803;51.666;7.630;2023-03-13T00:04:50;99846.78;;;12.65;50.74
7524;BME280;3803;51.666;7.630;2023-03-13T00:05:12;99852.00;;;12.68;50.56
7524;BME280;3803;51.666;7.630;2023-03-13T00:05:34;99862.47;;;12.68;50.98
7524;BME280;3803;51.666;7.630;2023-03-13T00:05:56;99839.75;;;12.57;50.81
7524;BME280;3803;51.666;7.630;2023-03-13T00:06:17;99840.63;;;12.59;50.99
7524;BME280;3803;51.666;7.630;2023-03-13T00:06:38;99852.88;;;12.62;51.05
7524;BME280;3803;51.666;7.630;2023-03-13T00:06:59;99844.97;;;12.54;50.88
7524;BME280;3803;51.666;7.630;2023-03-13T00:07:20;99851.97;;;12.58;50.67
7524;BME280;3803;51.666;7.630;2023-03-13T00:07:40;99849.38;;;12.63;51.05
7524;BME280;3803;51.666;7.630;2023-03-13T00:08:01;99837.09;;;12.54;51.09
7524;BME280;3803;51.666;7.630;2023-03-13T00:08:22;99853.72;;;12.59;50.89
7524;BME280;3803;51.666;7.630;2023-03-13T00:08:43;99838.88;;;12.54;50.87
7524;BME280;3803;51.666;7.630;2023-03-13T00:09:06;99832.75;;;12.53;51.12
7524;BME280;3803;51.666;7.630;2023-03-13T00:09:28;99851.09;;;12.58;51.30
7524;BME280;3803;51.666;7.630;2023-03-13T00:09:48;99846.69;;;12.55;51.10
7524;BME280;3803;51.666;7.630;2023-03-13T00:10:09;99832.75;;;12.50;51.10
7524;BME280;3803;51.666;7.630;2023-03-13T00:10:29;99847.56;;;12.54;51.13
7524;BME280;3803;51.666;7.630;2023-03-13T00:10:50;99830.13;;;12.53;51.17
7524;BME280;3803;51.666;7.630;2023-03-13T00:11:12;99845.00;;;12.60;51.36
7524;BME280;3803;51.666;7.630;2023-03-13T00:11:43;99842.34;;;12.53;51.25
7524;BME280;3803;51.666;7.630;2023-03-13T00:12:05;99845.00;;;12.60;51.00
7524;BME280;3803;51.666;7.630;2023-03-13T00:12:25;99841.50;;;12.61;50.94
7524;BME280;3803;51.666;7.630;2023-03-13T00:12:46;99843.25;;;12.56;50.92
7524;BME280;3803;51.666;7.630;2023-03-13T00:13:07;99837.13;;;12.57;51.01
7524;BME280;3803;51.666;7.630;2023-03-13T00:13:28;99846.75;;;12.61;51.08
7524;BME280;3803;51.666;7.630;2023-03-13T00:13:53;99843.25;;;12.61;51.14
7524;BME280;3803;51.666;7.630;2023-03-13T00:14:14;99845.00;;;12.60;51.17
7524;BME280;3803;51.666;7.630;2023-03-13T00:14:34;99834.53;;;12.60;50.93
7524;BME280;3803;51.666;7.630;2023-03-13T00:14:55;99832.75;;;12.58;50.84
7524;BME280;3803;51.666;7.630;2023-03-13T00:15:15;99826.66;;;12.59;50.74
7524;BME280;3803;51.666;7.630;2023-03-13T00:15:36;99839.78;;;12.62;50.72
7524;BME280;3803;51.666;7.630;2023-03-13T00:16:05;99841.53;;;12.68;50.92
7524;BME280;3803;51.666;7.630;2023-03-13T00:16:26;99836.28;;;12.61;50.71
7524;BME280;3803;51.666;7.630;2023-03-13T00:16:47;99843.31;;;12.72;50.67
7524;BME280;3803;51.666;7.630;2023-03-13T00:17:07;99843.31;;;12.72;51.19
7524;BME280;3803;51.666;7.630;2023-03-13T00:17:28;99836.31;;;12.72;50.87
7524;BME280;3803;51.666;7.630;2023-03-13T00:17:49;99828.44;;;12.68;51.01
7524;BME280;3803;51.666;7.630;2023-03-13T00:18:09;99841.53;;;12.71;50.83
7524;BME280;3803;51.666;7.630;2023-03-13T00:18:30;99829.31;;;12.67;51.11
7524;BME280;3803;51.666;7.630;2023-03-13T00:18:53;99829.31;;;12.67;51.20
7524;BME280;3803;51.666;7.630;2023-03-13T00:19:14;99827.59;;;12.66;51.08
7524;BME280;3803;51.666;7.630;2023-03-13T00:19:35;99824.09;;;12.64;51.12
7524;BME280;3803;51.666;7.630;2023-03-13T00:19:55;99832.84;;;12.72;51.03
7524;BME280;3803;51.666;7.630;2023-03-13T00:20:16;99823.19;;;12.66;50.93
7524;BME280;3803;51.666;7.630;2023-03-13T00:20:36;99829.34;;;12.68;50.93
7524;BME280;3803;51.666;7.630;2023-03-13T00:21:01;99826.72;;;12.70;50.90
7524;BME280;3803;51.666;7.630;2023-03-13T00:21:24;99812.75;;;12.65;51.00
7524;BME280;3803;51.666;7.630;2023-03-13T00:21:45;99829.34;;;12.73;51.06
7524;BME280;3803;51.666;7.630;2023-03-13T00:22:06;99822.34;;;12.73;51.28
7524;BME280;3803;51.666;7.630;2023-03-13T00:22:26;99825.88;;;12.75;50.95
7524;BME280;3803;51.666;7.630;2023-03-13T00:22:47;99811.03;;;12.68;50.98
7524;BME280;3803;51.666;7.630;2023-03-13T00:23:08;99822.38;;;12.80;50.73
7524;BME280;3803;51.666;7.630;2023-03-13T00:23:29;99819.75;;;12.75;50.99
7524;BME280;3803;51.666;7.630;2023-03-13T00:23:50;99822.38;;;12.75;50.74
7524;BME280;3803;51.666;7.630;2023-03-13T00:24:10;99817.13;;;12.75;50.99
7524;BME280;3803;51.666;7.630;2023-03-13T00:24:31;99818.00;;;12.72;51.01
7524;BME280;3803;51.666;7.630;2023-03-13T00:24:53;99821.47;;;12.74;51.02
7524;BME280;3803;51.666;7.630;2023-03-13T00:25:13;99812.78;;;12.77;51.16
7524;BME280;3803;51.666;7.630;2023-03-13T00:25:34;99811.91;;;12.75;51.15
7524;BME280;3803;51.666;7.630;2023-03-13T00:25:58;99817.13;;;12.75;51.06
7524;BME280;3803;51.666;7.630;2023-03-13T00:26:21;99826.75;;;12.78;51.09
7524;BME280;3803;51.666;7.630;2023-03-13T00:26:42;99821.47;;;12.74;50.92
7524;BME280;3803;51.666;7.630;2023-03-13T00:27:04;99819.75;;;12.75;50.86
7524;BME280;3803;51.666;7.630;2023-03-13T00:27:26;99811.00;;;12.74;50.85
7524;BME280;3803;51.666;7.630;2023-03-13T00:27:46;99805.78;;;12.74;51.07
7524;BME280;3803;51.666;7.630;2023-03-13T00:28:07;99818.03;;;12.75;51.25
7524;BME280;3803;51.666;7.630;2023-03-13T00:28:30;99818.03;;;12.83;51.04
7524;BME280;3803;51.666;7.630;2023-03-13T00:28:51;99825.03;;;12.84;50.86
7524;BME280;3803;51.666;7.630;2023-03-13T00:29:13;99814.56;;;12.81;50.85
7524;BME280;3803;51.666;7.630;2023-03-13T00:29:33;99801.44;;;12.75;51.16
7524;BME280;3803;51.666;7.630;2023-03-13T00:29:55;99820.66;;;12.86;51.06
7524;BME280;3803;51.666;7.630;2023-03-13T00:30:16;99798.81;;;12.77;51.17
7524;BME280;3803;51.666;7.630;2023-03-13T00:30:36;99819.78;;;12.84;51.13
7524;BME280;3803;51.666;7.630;2023-03-13T00:31:15;99810.19;;;12.83;51.00
7524;BME280;3803;51.666;7.630;2023-03-13T00:31:36;99820.66;;;12.83;51.17
7524;BME280;3803;51.666;7.630;2023-03-13T00:31:56;99824.16;;;12.84;51.26
7524;BME280;3803;51.666;7.630;2023-03-13T00:32:17;99800.56;;;12.81;50.79
7524;BME280;3803;51.666;7.630;2023-03-13T00:32:41;99798.84;;;12.86;50.91
7524;BME280;3803;51.666;7.630;2023-03-13T00:33:02;99794.47;;;12.83;50.97
7524;BME280;3803;51.666;7.630;2023-03-13T00:33:22;99802.31;;;12.82;51.03
7524;BME280;3803;51.666;7.630;2023-03-13T00:33:45;99806.72;;;12.87;50.98
7524;BME280;3803;51.666;7.630;2023-03-13T00:34:05;99792.69;;;12.79;51.13
7524;BME280;3803;51.666;7.630;2023-03-13T00:34:44;99790.09;;;12.81;50.88
7524;BME280;3803;51.666;7.630;2023-03-13T00:35:05;99791.84;;;12.82;51.01
7524;BME280;3803;51.666;7.630;2023-03-13T00:35:26;99804.94;;;12.86;51.39
7524;BME280;3803;51.666;7.630;2023-03-13T00:35:47;99803.19;;;12.85;50.84
7524;BME280;3803;51.666;7.630;2023-03-13T00:36:13;99803.19;;;12.85;51.16
7524;BME280;3803;51.666;7.630;2023-03-13T00:36:35;99790.97;;;12.84;50.80
7524;BME280;3803;51.666;7.630;2023-03-13T00:36:55;99796.19;;;12.83;51.17
7524;BME280;3803;51.666;7.630;2023-03-13T00:37:16;99797.97;;;12.85;51.18
7524;BME280;3803;51.666;7.630;2023-03-13T00:37:37;99798.84;;;12.86;50.90
7524;BME280;3803;51.666;7.630;2023-03-13T00:37:58;99798.88;;;12.87;51.01
7524;BME280;3803;51.666;7.630;2023-03-13T00:38:19;99790.97;;;12.84;51.10
7524;BME280;3803;51.666;7.630;2023-03-13T00:38:40;99797.97;;;12.85;51.02
7524;BME280;3803;51.666;7.630;2023-03-13T00:39:02;99801.47;;;12.87;51.10
7524;BME280;3803;51.666;7.630;2023-03-13T00:39:24;99791.84;;;12.83;51.19
7524;BME280;3803;51.666;7.630;2023-03-13T00:39:44;99797.13;;;12.89;50.82
7524;BME280;3803;51.666;7.630;2023-03-13T00:40:05;99810.25;;;12.94;50.90
7524;BME280;3803;51.666;7.630;2023-03-13T00:40:27;99794.50;;;12.89;51.09
7524;BME280;3803;51.666;7.630;2023-03-13T00:40:48;99803.28;;;12.98;51.21
7524;BME280;3803;51.666;7.630;2023-03-13T00:41:11;99798.03;;;12.93;51.13
7524;BME280;3803;51.666;7.630;2023-03-13T00:41:32;99790.19;;;12.93;50.92
7524;BME280;3803;51.666;7.630;2023-03-13T00:41:53;99785.78;;;12.91;51.05
7524;BME280;3803;51.666;7.630;2023-03-13T00:42:15;99790.13;;;12.90;51.37
7524;BME280;3803;51.666;7.630;2023-03-13T00:42:35;99792.78;;;12.95;51.38
7524;BME280;3803;51.666;7.630;2023-03-13T00:42:56;99776.16;;;12.86;51.56
7524;BME280;3803;51.666;7.630;2023-03-13T00:43:17;99772.66;;;12.86;51.43
7524;BME280;3803;51.666;7.630;2023-03-13T00:43:38;99787.50;;;12.92;51.59
7524;BME280;3803;51.666;7.630;2023-03-13T00:43:59;99791.88;;;12.85;51.74
7524;BME280;3803;51.666;7.630;2023-03-13T00:44:20;99792.75;;;12.88;51.55
7524;BME280;3803;51.666;7.630;2023-03-13T00:44:41;99798.88;;;12.87;51.60
7524;BME280;3803;51.666;7.630;2023-03-13T00:45:02;99793.63;;;12.87;51.65
7524;BME280;3803;51.666;7.630;2023-03-13T00:45:23;99786.63;;;12.85;51.68
7524;BME280;3803;51.666;7.630;2023-03-13T00:45:43;99785.75;;;12.84;51.58
7524;BME280;3803;51.666;7.630;2023-03-13T00:46:04;99786.63;;;12.91;51.53
7524;BME280;3803;51.666;7.630;2023-03-13T00:46:27;99796.28;;;12.94;51.73
7524;BME280;3803;51.666;7.630;2023-03-13T00:46:48;99777.91;;;12.87;51.92
7524;BME280;3803;51.666;7.630;2023-03-13T00:47:08;99777.03;;;12.88;51.69
7524;BME280;3803;51.666;7.630;2023-03-13T00:47:29;99791.00;;;12.87;51.76
7524;BME280;3803;51.666;7.630;2023-03-13T00:47:50;99778.78;;;12.93;51.73
7524;BME280;3803;51.666;7.630;2023-03-13T00:48:10;99790.13;;;12.92;51.60
7524;BME280;3803;51.666;7.630;2023-03-13T00:48:31;99784.94;;;12.98;51.63
7524;BME280;3803;51.666;7.630;2023-03-13T00:48:53;99784.06;;;12.99;51.47
7524;BME280;3803;51.666;7.630;2023-03-13T00:49:14;99777.03;;;12.92;51.39
7524;BME280;3803;51.666;7.630;2023-03-13T00:49:49;99787.59;;;13.04;51.37
7524;BME280;3803;51.666;7.630;2023-03-13T00:50:10;99783.19;;;13.00;51.46
7524;BME280;3803;51.666;7.630;2023-03-13T00:50:31;99785.84;;;13.01;51.35
7524;BME280;3803;51.666;7.630;2023-03-13T00:50:52;99774.47;;;13.06;51.54
7524;BME280;3803;51.666;7.630;2023-03-13T00:51:14;99782.34;;;13.10;51.65
7524;BME280;3803;51.666;7.630;2023-03-13T00:51:35;99777.13;;;13.04;51.35
7524;BME280;3803;51.666;7.630;2023-03-13T00:51:56;99793.69;;;13.09;51.35
7524;BME280;3803;51.666;7.630;2023-03-13T00:52:16;99771.00;;;13.04;51.48
7524;BME280;3803;51.666;7.630;2023-03-13T00:52:37;99778.84;;;13.04;51.86
7524;BME280;3803;51.666;7.630;2023-03-13T00:53:01;99781.47;;;13.04;51.93
7524;BME280;3803;51.666;7.630;2023-03-13T00:53:22;99770.09;;;13.00;51.64
7524;BME280;3803;51.666;7.630;2023-03-13T00:53:43;99779.72;;;12.99;51.97
7524;BME280;3803;51.666;7.630;2023-03-13T00:54:04;99774.47;;;12.93;51.87
7524;BME280;3803;51.666;7.630;2023-03-13T00:54:24;99759.56;;;12.89;52.18
7524;BME280;3803;51.666;7.630;2023-03-13T00:54:45;99765.69;;;12.93;52.19
7524;BME280;3803;51.666;7.630;2023-03-13T00:55:06;99776.16;;;12.85;52.64
7524;BME280;3803;51.666;7.630;2023-03-13T00:55:26;99761.28;;;12.76;53.04
7524;BME280;3803;51.666;7.630;2023-03-13T00:55:56;99764.78;;;12.72;53.14
7524;BME280;3803;51.666;7.630;2023-03-13T00:56:18;99770.03;;;12.72;53.45
7524;BME280;3803;51.666;7.630;2023-03-13T00:56:39;99760.38;;;12.66;53.89
7524;BME280;3803;51.666;7.630;2023-03-13T00:57:00;99770.00;;;12.69;53.79
7524;BME280;3803;51.666;7.630;2023-03-13T00:57:21;99754.25;;;12.63;53.95
7524;BME280;3803;51.666;7.630;2023-03-13T00:57:41;99755.13;;;12.58;54.25
7524;BME280;3803;51.666;7.630;2023-03-13T00:58:02;99767.34;;;12.63;54.25
7524;BME280;3803;51.666;7.630;2023-03-13T00:58:36;99769.97;;;12.56;55.00
7524;BME280;3803;51.666;7.630;2023-03-13T00:58:58;99762.06;;;12.45;54.91
7524;BME280;3803;51.666;7.630;2023-03-13T00:59:20;99769.06;;;12.48;54.90
7524;BME280;3803;51.666;7.630;2023-03-13T00:59:41;99762.94;;;12.46;54.95
7524;BME280;3803;51.666;7.630;2023-03-13T01:00:03;99742.00;;;12.40;55.21
7524;BME280;3803;51.666;7.630;2023-03-13T01:00:25;99759.38;;;12.33;55.09
7524;BME280;3803;51.666;7.630;2023-03-13T01:00:46;99757.66;;;12.37;55.51
7524;BME280;3803;51.666;7.630;2023-03-13T01:01:30;99756.78;;;12.30;55.47
7524;BME280;3803;51.666;7.630;2023-03-13T01:01:51;99748.91;;;12.25;55.68
7524;BME280;3803;51.666;7.630;2023-03-13T01:02:12;99756.75;;;12.25;55.96
7524;BME280;3803;51.666;7.630;2023-03-13T01:02:40;99761.06;;;12.20;56.19
7524;BME280;3803;51.666;7.630;2023-03-13T01:03:00;99762.81;;;12.21;56.19
7524;BME280;3803;51.666;7.630;2023-03-13T01:03:22;99761.94;;;12.19;56.64
7524;BME280;3803;51.666;7.630;2023-03-13T01:03:49;99751.44;;;12.05;56.87
7524;BME280;3803;51.666;7.630;2023-03-13T01:04:25;99760.16;;;12.07;57.34
7524;BME280;3803;51.666;7.630;2023-03-13T01:04:45;99739.13;;;11.95;57.37
7524;BME280;3803;51.666;7.630;2023-03-13T01:05:06;99748.75;;;11.94;57.82
7524;BME280;3803;51.666;7.630;2023-03-13T01:05:27;99751.38;;;11.97;57.89
7524;BME280;3803;51.666;7.630;2023-03-13T01:05:58;99750.44;;;11.92;57.92
7524;BME280;3803;51.666;7.630;2023-03-13T01:06:24;99746.97;;;11.88;58.39
7524;BME280;3803;51.666;7.630;2023-03-13T01:06:45;99746.09;;;11.85;58.19
7524;BME280;3803;51.666;7.630;2023-03-13T01:07:05;99753.03;;;11.84;58.41
7524;BME280;3803;51.666;7.630;2023-03-13T01:07:28;99748.69;;;11.88;58.67
7524;BME280;3803;51.666;7.630;2023-03-13T01:07:48;99733.81;;;11.76;58.70
7524;BME280;3803;51.666;7.630;2023-03-13T01:08:10;99744.28;;;11.77;58.83
7524;BME280;3803;51.666;7.630;2023-03-13T01:08:31;99746.00;;;11.77;59.13
7524;BME280;3803;51.666;7.630;2023-03-13T01:08:51;99753.88;;;11.82;59.00
7524;BME280;3803;51.666;7.630;2023-03-13T01:09:14;99736.38;;;11.70;59.35
7524;BME280;3803;51.666;7.630;2023-03-13T01:09:35;99730.31;;;11.74;59.15
7524;BME280;3803;51.666;7.630;2023-03-13T01:09:56;99738.16;;;11.72;59.25
7524;BME280;3803;51.666;7.630;2023-03-13T01:10:16;99733.78;;;11.70;59.56
7524;BME280;3803;51.666;7.630;2023-03-13T01:10:38;99733.78;;;11.71;59.42
7524;BME280;3803;51.666;7.630;2023-03-13T01:11:12;99744.25;;;11.74;59.75
7524;BME280;3803;51.666;7.630;2023-03-13T01:11:35;99735.50;;;11.71;59.83
7524;BME280;3803;51.666;7.630;2023-03-13T01:11:56;99733.75;;;11.68;60.13
7524;BME280;3803;51.666;7.630;2023-03-13T01:12:16;99735.53;;;11.69;59.94
7524;BME280;3803;51.666;7.630;2023-03-13T01:12:37;99734.66;;;11.73;60.33
7524;BME280;3803;51.666;7.630;2023-03-13T01:12:58;99735.53;;;11.69;60.22
7524;BME280;3803;51.666;7.630;2023-03-13T01:13:18;99734.63;;;11.67;60.37
7524;BME280;3803;51.666;7.630;2023-03-13T01:13:39;99734.66;;;11.70;60.49
7524;BME280;3803;51.666;7.630;2023-03-13T01:14:05;99744.22;;;11.70;60.89
7524;BME280;3803;51.666;7.630;2023-03-13T01:14:26;99729.34;;;11.64;60.69
7524;BME280;3803;51.666;7.630;2023-03-13T01:14:49;99724.97;;;11.58;60.96
7524;BME280;3803;51.666;7.630;2023-03-13T01:15:10;99723.22;;;11.59;61.02
7524;BME280;3803;51.666;7.630;2023-03-13T01:15:33;99724.94;;;11.57;61.06
7524;BME280;3803;51.666;7.630;2023-03-13T01:15:54;99723.22;;;11.57;61.30
7524;BME280;3803;51.666;7.630;2023-03-13T01:16:17;99719.69;;;11.55;61.34
7524;BME280;3803;51.666;7.630;2023-03-13T01:16:39;99720.59;;;11.56;61.58
7524;BME280;3803;51.666;7.630;2023-03-13T01:16:59;99720.59;;;11.59;61.32
7524;BME280;3803;51.666;7.630;2023-03-13T01:17:20;99722.31;;;11.55;61.90
7524;BME280;3803;51.666;7.630;2023-03-13T01:17:42;99717.94;;;11.51;61.94
7524;BME280;3803;51.666;7.630;2023-03-13T01:18:03;99720.59;;;11.56;62.30
7524;BME280;3803;51.666;7.630;2023-03-13T01:18:24;99714.44;;;11.50;61.92
7524;BME280;3803;51.666;7.630;2023-03-13T01:18:57;99720.56;;;11.52;62.20
7524;BME280;3803;51.666;7.630;2023-03-13T01:19:18;99710.94;;;11.48;62.22
7524;BME280;3803;51.666;7.630;2023-03-13T01:19:39;99696.09;;;11.44;62.48
7524;BME280;3803;51.666;7.630;2023-03-13T01:19:59;99713.56;;;11.45;62.50
7524;BME280;3803;51.666;7.630;2023-03-13T01:20:20;99708.34;;;11.48;62.49
7524;BME280;3803;51.666;7.630;2023-03-13T01:20:41;99700.47;;;11.47;62.69
7524;BME280;3803;51.666;7.630;2023-03-13T01:21:02;99719.69;;;11.55;62.57
7524;BME280;3803;51.666;7.630;2023-03-13T01:21:23;99711.81;;;11.47;62.59
7524;BME280;3803;51.666;7.630;2023-03-13T01:21:45;99715.34;;;11.52;62.85
7524;BME280;3803;51.666;7.630;2023-03-13T01:22:05;99701.31;;;11.44;62.91
7524;BME280;3803;51.666;7.630;2023-03-13T01:22:30;99703.97;;;11.46;63.02
7524;BME280;3803;51.666;7.630;2023-03-13T01:22:53;99694.41;;;11.46;62.88
7524;BME280;3803;51.666;7.630;2023-03-13T01:23:13;99708.38;;;11.55;62.83
7524;BME280;3803;51.666;7.630;2023-03-13T01:23:35;99708.38;;;11.56;62.86
7524;BME280;3803;51.666;7.630;2023-03-13T01:23:56;99712.72;;;11.51;63.17
7524;BME280;3803;51.666;7.630;2023-03-13T01:24:17;99706.66;;;11.54;62.65
7524;BME280;3803;51.666;7.630;2023-03-13T01:24:39;99706.66;;;11.54;62.95
7524;BME280;3803;51.666;7.630;2023-03-13T01:25:00;99707.53;;;11.56;63.17
7524;BME280;3803;51.666;7.630;2023-03-13T01:25:21;99714.50;;;11.58;63.34
7524;BME280;3803;51.666;7.630;2023-03-13T01:25:41;99708.38;;;11.55;63.17
7524;BME280;3803;51.666;7.630;2023-03-13T01:26:04;99719.75;;;11.61;63.40
7524;BME280;3803;51.666;7.630;2023-03-13T01:26:26;99704.09;;;11.64;63.00
7524;BME280;3803;51.666;7.630;2023-03-13T01:26:47;99694.47;;;11.56;63.21
7524;BME280;3803;51.666;7.630;2023-03-13T01:27:09;99710.16;;;11.60;63.00
7524;BME280;3803;51.666;7.630;2023-03-13T01:27:30;99694.50;;;11.63;62.60
7524;BME280;3803;51.666;7.630;2023-03-13T01:27:51;99690.16;;;11.64;62.80
7524;BME280;3803;51.666;7.630;2023-03-13T01:28:12;99696.28;;;11.66;62.61
7524;BME280;3803;51.666;7.630;2023-03-13T01:28:34;99687.53;;;11.62;62.39
7524;BME280;3803;51.666;7.630;2023-03-13T01:28:55;99691.94;;;11.65;62.56
7524;BME280;3803;51.666;7.630;2023-03-13T01:29:16;99694.53;;;11.65;62.52
7524;BME280;3803;51.666;7.630;2023-03-13T01:29:37;99684.97;;;11.69;62.28
7524;BME280;3803;51.666;7.630;2023-03-13T01:29:58;99693.72;;;11.69;62.34
7524;BME280;3803;51.666;7.630;2023-03-13T01:30:19;99687.59;;;11.65;62.33
7524;BME280;3803;51.666;7.630;2023-03-13T01:30:40;99699.81;;;11.71;62.49
7524;BME280;3803;51.666;7.630;2023-03-13T01:31:13;99682.31;;;11.61;62.51
7524;BME280;3803;51.666;7.630;2023-03-13T01:31:35;99696.28;;;11.66;62.65
7524;BME280;3803;51.666;7.630;2023-03-13T01:31:56;99688.47;;;11.68;62.26
7524;BME280;3803;51.666;7.630;2023-03-13T01:32:18;99691.09;;;11.69;62.73
7524;BME280;3803;51.666;7.630;2023-03-13T01:32:39;99689.38;;;11.71;62.51
7524;BME280;3803;51.666;7.630;2023-03-13T01:32:59;99688.50;;;11.74;62.59
7524;BME280;3803;51.666;7.630;2023-03-13T01:33:21;99683.25;;;11.69;62.66
7524;BME280;3803;51.666;7.630;2023-03-13T01:33:42;99677.16;;;11.73;62.41
7524;BME280;3803;51.666;7.630;2023-03-13T01:34:04;99685.00;;;11.73;62.50
7524;BME280;3803;51.666;7.630;2023-03-13T01:34:25;99679.78;;;11.70;62.38
7524;BME280;3803;51.666;7.630;2023-03-13T01:34:46;99675.44;;;11.72;62.66
7524;BME280;3803;51.666;7.630;2023-03-13T01:35:07;99678.94;;;11.73;62.33
7524;BME280;3803;51.666;7.630;2023-03-13T01:35:27;99676.28;;;11.70;62.37
7524;BME280;3803;51.666;7.630;2023-03-13T01:35:48;99663.22;;;11.71;62.54
7524;BME280;3803;51.666;7.630;2023-03-13T01:36:09;99671.06;;;11.74;62.45
7524;BME280;3803;51.666;7.630;2023-03-13T01:36:31;99660.59;;;11.70;62.15
7524;BME280;3803;51.666;7.630;2023-03-13T01:36:52;99673.69;;;11.74;62.35
7524;BME280;3803;51.666;7.630;2023-03-13T01:37:13;99678.94;;;11.77;62.57
7524;BME280;3803;51.666;7.630;2023-03-13T01:37:34;99665.00;;;11.78;62.58
7524;BME280;3803;51.666;7.630;2023-03-13T01:37:54;99671.97;;;11.83;62.34
7524;BME280;3803;51.666;7.630;2023-03-13T01:38:15;99677.25;;;11.86;62.24
7524;BME280;3803;51.666;7.630;2023-03-13T01:38:36;99656.31;;;11.79;62.43
7524;BME280;3803;51.666;7.630;2023-03-13T01:38:59;99672.03;;;11.89;62.21
7524;BME280;3803;51.666;7.630;2023-03-13T01:39:20;99672.03;;;11.89;62.38
7524;BME280;3803;51.666;7.630;2023-03-13T01:39:40;99657.16;;;11.82;62.27
7524;BME280;3803;51.666;7.630;2023-03-13T01:40:01;99653.69;;;11.81;62.09
7524;BME280;3803;51.666;7.630;2023-03-13T01:40:22;99657.19;;;11.86;62.05
7524;BME280;3803;51.666;7.630;2023-03-13T01:40:45;99653.75;;;11.90;61.94
7524;BME280;3803;51.666;7.630;2023-03-13T01:41:08;99658.06;;;11.87;61.83
7524;BME280;3803;51.666;7.630;2023-03-13T01:41:30;99663.31;;;11.91;61.90
7524;BME280;3803;51.666;7.630;2023-03-13T01:41:51;99642.41;;;11.90;62.06
7524;BME280;3803;51.666;7.630;2023-03-13T01:42:12;99659.84;;;11.94;61.90
7524;BME280;3803;51.666;7.630;2023-03-13T01:42:54;99661.63;;;12.01;61.98
7524;BME280;3803;51.666;7.630;2023-03-13T01:43:19;99667.72;;;11.99;62.02
7524;BME280;3803;51.666;7.630;2023-03-13T01:43:40;99660.72;;;11.93;62.07
7524;BME280;3803;51.666;7.630;2023-03-13T01:44:01;99653.72;;;11.89;62.07
7524;BME280;3803;51.666;7.630;2023-03-13T01:44:49;99658.13;;;11.93;62.26
7524;BME280;3803;51.666;7.630;2023-03-13T01:45:49;99666.00;;;12.04;62.24
7524;BME280;3803;51.666;7.630;2023-03-13T01:46:18;99649.44;;;12.00;62.13
7524;BME280;3803;51.666;7.630;2023-03-13T01:46:58;99651.19;;;12.01;62.01
7524;BME280;3803;51.666;7.630;2023-03-13T01:47:19;99643.34;;;12.01;61.91
7524;BME280;3803;51.666;7.630;2023-03-13T01:48:00;99649.44;;;12.08;61.87
7524;BME280;3803;51.666;7.630;2023-03-13T01:49:29;99648.59;;;12.12;62.21
7524;BME280;3803;51.666;7.630;2023-03-13T01:50:00;99649.47;;;12.10;62.15
7524;BME280;3803;51.666;7.630;2023-03-13T01:50:59;99653.84;;;12.18;62.10
7524;BME280;3803;51.666;7.630;2023-03-13T01:51:30;99650.31;;;12.15;61.92
7524;BME280;3803;51.666;7.630;2023-03-13T01:51:58;99649.50;;;12.16;61.95
7524;BME280;3803;51.666;7.630;2023-03-13T01:52:25;99650.34;;;12.19;61.78
7524;BME280;3803;51.666;7.630;2023-03-13T01:53:07;99650.38;;;12.18;62.06
7524;BME280;3803;51.666;7.630;2023-03-13T01:53:30;99631.13;;;12.11;61.59
7524;BME280;3803;51.666;7.630;2023-03-13T01:54:18;99645.09;;;12.15;62.02
7524;BME280;3803;51.666;7.630;2023-03-13T01:55:03;99643.38;;;12.18;61.84
7524;BME280;3803;51.666;7.630;2023-03-13T01:55:25;99639.88;;;12.13;62.22
7524;BME280;3803;51.666;7.630;2023-03-13T01:55:47;99647.72;;;12.19;62.19
7524;BME280;3803;51.666;7.630;2023-03-13T01:56:19;99637.25;;;12.15;62.06
7524;BME280;3803;51.666;7.630;2023-03-13T01:56:47;99625.94;;;12.13;62.16
7524;BME280;3803;51.666;7.630;2023-03-13T01:57:19;99621.56;;;12.15;62.25
7524;BME280;3803;51.666;7.630;2023-03-13T01:57:47;99627.69;;;12.18;61.96
7524;BME280;3803;51.666;7.630;2023-03-13T01:58:10;99632.91;;;12.18;62.18
7524;BME280;3803;51.666;7.630;2023-03-13T01:58:32;99624.19;;;12.16;62.24
7524;BME280;3803;51.666;7.630;2023-03-13T01:58:54;99623.34;;;12.16;62.21
7524;BME280;3803;51.666;7.630;2023-03-13T01:59:24;99633.78;;;12.22;62.22
7524;BME280;3803;51.666;7.630;2023-03-13T01:59:50;99635.56;;;12.26;62.07
7524;BME280;3803;51.666;7.630;2023-03-13T02:00:15;99633.81;;;12.28;62.17
7524;BME280;3803;51.666;7.630;2023-03-13T02:00:37;99634.69;;;12.30;61.90
7524;BME280;3803;51.666;7.630;2023-03-13T02:01:03;99631.19;;;12.28;62.03
7524;BME280;3803;51.666;7.630;2023-03-13T02:01:25;99632.06;;;12.30;61.78
7524;BME280;3803;51.666;7.630;2023-03-13T02:01:48;99624.22;;;12.27;62.16
7524;BME280;3803;51.666;7.630;2023-03-13T02:02:10;99624.25;;;12.29;61.93
7524;BME280;3803;51.666;7.630;2023-03-13T02:02:32;99628.59;;;12.28;62.22
7524;BME280;3803;51.666;7.630;2023-03-13T02:02:54;99625.97;;;12.33;61.96
7524;BME280;3803;51.666;7.630;2023-03-13T02:03:17;99628.56;;;12.31;62.21
7524;BME280;3803;51.666;7.630;2023-03-13T02:03:39;99619.88;;;12.32;61.92
7524;BME280;3803;51.666;7.630;2023-03-13T02:04:00;99604.16;;;12.23;62.30
7524;BME280;3803;51.666;7.630;2023-03-13T02:04:21;99605.03;;;12.22;62.15
7524;BME280;3803;51.666;7.630;2023-03-13T02:04:46;99605.91;;;12.21;62.44
7524;BME280;3803;51.666;7.630;2023-03-13T02:05:08;99605.00;;;12.17;62.67
7524;BME280;3803;51.666;7.630;2023-03-13T02:05:29;99612.88;;;12.20;62.56
7524;BME280;3803;51.666;7.630;2023-03-13T02:05:50;99612.00;;;12.15;62.88
7524;BME280;3803;51.666;7.630;2023-03-13T02:06:11;99620.69;;;12.13;62.76